Time;durP1;ratioP1;P1;durP2;ratioP2;P2;SDS_P1;SDS_P2;PMS_P1;PMS_P2;Temp;Humidity;BMP_temperature;BMP_pressure;BME280_temperature;BME280_humidity;BME280_pressure;Samples;Min_cycle;Max_cycle;Signal;HPM_P1;HPM_P2
2021/04/08 00:03:59;;;;;;;3.20;2.70;;;4.90;36.70;;;;;;10447963;28;20231;-72
2021/04/08 00:09:01;;;;;;;2.70;2.50;;;4.80;36.60;;;;;;10448475;28;20685;-72
2021/04/08 00:14:04;;;;;;;2.93;2.53;;;4.90;36.70;;;;;;10447368;28;20243;-72
2021/04/08 00:19:08;;;;;;;4.60;2.43;;;4.90;36.70;;;;;;10443865;28;20781;-72
2021/04/08 00:24:11;;;;;;;3.10;2.17;;;4.90;36.90;;;;;;10446256;28;20232;-72
2021/04/08 00:29:13;;;;;;;2.30;2.10;;;4.90;36.70;;;;;;10446471;28;20263;-72
2021/04/08 00:34:16;;;;;;;2.40;2.20;;;5.00;36.80;;;;;;10448520;28;20232;-72
2021/04/08 00:39:18;;;;;;;2.80;2.30;;;5.00;36.80;;;;;;10447311;28;20243;-72
2021/04/08 00:44:20;;;;;;;3.20;2.60;;;5.10;36.90;;;;;;10448012;28;20241;-72
2021/04/08 00:49:23;;;;;;;2.93;2.30;;;5.10;36.30;;;;;;10451839;28;20697;-72
2021/04/08 00:54:26;;;;;;;2.07;1.90;;;5.10;36.80;;;;;;10448870;28;20231;-72
2021/04/08 00:59:29;;;;;;;3.87;2.63;;;5.10;36.30;;;;;;10453062;28;20220;-72
2021/04/08 01:04:32;;;;;;;3.60;2.47;;;5.10;36.50;;;;;;10448946;28;20225;-73
2021/04/08 01:09:34;;;;;;;2.53;2.33;;;5.10;36.80;;;;;;10444820;28;20225;-72
2021/04/08 01:14:36;;;;;;;2.23;2.03;;;5.00;36.50;;;;;;10448909;28;20237;-72
2021/04/08 01:20:14;;;;;;;3.00;2.33;;;5.00;36.80;;;;;;10444426;28;20229;-72
2021/04/08 01:25:43;;;;;;;3.70;2.53;;;5.10;36.90;;;;;;10446489;28;20248;-72
2021/04/08 01:30:49;;;;;;;5.27;2.40;;;5.00;37.30;;;;;;10452155;28;20304;-72
2021/04/08 01:35:52;;;;;;;4.10;2.33;;;5.00;36.80;;;;;;10452863;28;20607;-72
2021/04/08 01:40:56;;;;;;;2.93;2.50;;;5.00;36.80;;;;;;10453755;28;20307;-72
2021/04/08 01:46:02;;;;;;;2.83;2.40;;;5.00;36.80;;;;;;10454890;28;20236;-72
2021/04/08 01:51:06;;;;;;;4.17;2.57;;;5.00;36.80;;;;;;10454281;28;20605;-72
2021/04/08 01:56:11;;;;;;;3.00;2.23;;;5.00;36.80;;;;;;10453701;28;20229;-72
2021/04/08 02:01:17;;;;;;;2.73;2.40;;;5.00;36.80;;;;;;10453998;28;20235;-72
2021/04/08 02:06:22;;;;;;;2.57;2.00;;;5.00;36.80;;;;;;10453346;28;20236;-72
2021/04/08 02:11:26;;;;;;;4.00;2.23;;;5.00;36.80;;;;;;10453535;28;20225;-72
2021/04/08 02:16:29;;;;;;;3.67;2.40;;;5.00;36.80;;;;;;10454068;28;20228;-72
2021/04/08 02:21:32;;;;;;;2.63;2.30;;;5.10;36.80;;;;;;10455493;28;20232;-72
2021/04/08 02:26:34;;;;;;;2.57;2.37;;;5.10;36.80;;;;;;10454245;28;20251;-72
2021/04/08 02:31:40;;;;;;;4.77;2.57;;;5.10;36.90;;;;;;10452330;28;20320;-72
2021/04/08 02:36:42;;;;;;;3.17;2.30;;;5.10;36.90;;;;;;10455133;28;20673;-72
2021/04/08 02:41:46;;;;;;;2.70;2.50;;;5.10;36.90;;;;;;10458624;28;20750;-72
2021/04/08 02:46:49;;;;;;;2.90;2.50;;;5.10;36.90;;;;;;10449968;28;20229;-72
2021/04/08 02:51:56;;;;;;;2.83;2.33;;;5.20;37.00;;;;;;10453093;28;20253;-72
2021/04/08 02:57:00;;;;;;;2.70;2.50;;;5.10;36.90;;;;;;10449201;28;20236;-72
2021/04/08 03:02:07;;;;;;;3.00;2.30;;;5.10;36.90;;;;;;10451911;28;20633;-72
2021/04/08 03:07:10;;;;;;;3.50;2.43;;;5.10;37.40;;;;;;10455661;28;20229;-72
2021/04/08 03:12:17;;;;;;;4.53;2.60;;;5.20;37.00;;;;;;10451097;28;20799;-72
2021/04/08 03:17:31;;;;;;;2.67;2.47;;;5.10;36.90;;;;;;10455277;28;20227;-72
2021/04/08 03:22:35;;;;;;;3.50;2.80;;;5.20;37.40;;;;;;10450544;28;20239;-72
2021/04/08 03:27:39;;;;;;;6.47;3.30;;;5.10;36.90;;;;;;10450077;28;20856;-72
2021/04/08 03:32:43;;;;;;;4.47;3.43;;;5.10;36.90;;;;;;10450378;28;20233;-72
2021/04/08 03:37:45;;;;;;;4.27;3.43;;;5.00;36.80;;;;;;10450565;28;20255;-72
2021/04/08 03:42:51;;;;;;;3.87;3.27;;;5.00;36.80;;;;;;10447881;28;20723;-72
2021/04/08 03:47:59;;;;;;;3.83;3.53;;;5.00;37.30;;;;;;10446418;28;20229;-72
2021/04/08 03:53:03;;;;;;;4.90;3.47;;;4.90;37.10;;;;;;10448988;28;20304;-72
2021/04/08 03:58:08;;;;;;;3.53;2.70;;;5.00;36.80;;;;;;10454352;28;20245;-72
2021/04/08 04:03:12;;;;;;;3.87;3.33;;;5.00;36.80;;;;;;10449119;28;20239;-72
2021/04/08 04:08:15;;;;;;;3.10;2.73;;;4.90;37.20;;;;;;10454590;28;20221;-72
2021/04/08 04:13:17;;;;;;;4.43;3.30;;;4.90;36.70;;;;;;10450626;28;20282;-72
2021/04/08 04:18:20;;;;;;;4.23;3.30;;;4.90;36.80;;;;;;10443868;28;20229;-72
2021/04/08 04:23:23;;;;;;;3.30;3.10;;;4.90;37.20;;;;;;10451328;28;20601;-72
2021/04/08 04:28:25;;;;;;;3.60;3.00;;;4.90;36.80;;;;;;10448651;28;20628;-72
2021/04/08 04:33:28;;;;;;;3.77;3.37;;;4.90;36.80;;;;;;10450229;28;20229;-72
2021/04/08 04:38:30;;;;;;;3.83;3.23;;;4.90;37.00;;;;;;10446646;28;20731;-72
2021/04/08 04:43:32;;;;;;;3.87;3.50;;;4.90;36.70;;;;;;10446580;28;20614;-72
2021/04/08 04:48:36;;;;;;;3.97;3.67;;;4.90;36.70;;;;;;10446635;28;20234;-72
2021/04/08 04:53:38;;;;;;;3.70;3.40;;;5.00;37.20;;;;;;10445887;28;20248;-72
2021/04/08 04:58:41;;;;;;;4.30;3.63;;;4.90;36.70;;;;;;10448576;28;20224;-72
2021/04/08 05:03:44;;;;;;;3.60;3.30;;;4.90;36.70;;;;;;10452037;28;20618;-72
2021/04/08 05:08:46;;;;;;;5.10;3.57;;;4.90;37.00;;;;;;10456259;28;20236;-72
2021/04/08 05:13:49;;;;;;;3.87;3.57;;;4.80;37.00;;;;;;10464437;28;20652;-72
2021/04/08 05:18:52;;;;;;;3.97;3.60;;;4.90;37.60;;;;;;10469836;28;20218;-72
2021/04/08 05:23:54;;;;;;;5.03;4.53;;;4.80;37.40;;;;;;10451727;28;20229;-72
2021/04/08 05:28:57;;;;;;;4.57;4.17;;;4.80;37.20;;;;;;10452086;28;20225;-72
2021/04/08 05:34:00;;;;;;;4.83;3.97;;;5.00;37.30;;;;;;10452142;28;20717;-72
2021/04/08 05:39:03;;;;;;;5.97;4.27;;;4.90;37.00;;;;;;10451057;28;20228;-72
2021/04/08 05:44:06;;;;;;;4.23;3.83;;;4.90;36.90;;;;;;10453787;28;20739;-72
2021/04/08 05:49:09;;;;;;;4.30;4.00;;;4.90;37.00;;;;;;10443983;28;20231;-72
2021/04/08 05:54:11;;;;;;;4.50;4.13;;;4.90;37.20;;;;;;10451887;28;20242;-72
2021/04/08 05:59:13;;;;;;;4.50;4.10;;;4.90;37.20;;;;;;10448877;28;20217;-72
2021/04/08 06:04:16;;;;;;;4.87;4.47;;;5.00;37.10;;;;;;10447994;28;20224;-72
2021/04/08 06:09:19;;;;;;;5.53;4.27;;;5.00;37.40;;;;;;10450797;28;20229;-72
2021/04/08 06:14:22;;;;;;;4.57;4.17;;;5.00;36.80;;;;;;10446306;28;20236;-72
2021/04/08 06:19:26;;;;;;;5.30;4.80;;;5.10;37.00;;;;;;10445799;28;20308;-72
2021/04/08 06:24:29;;;;;;;4.03;3.73;;;5.10;37.10;;;;;;10449364;28;20233;-72
2021/04/08 06:29:31;;;;;;;4.57;4.03;;;5.10;37.20;;;;;;10450699;28;20221;-72
2021/04/08 06:34:34;;;;;;;4.87;4.47;;;5.10;37.00;;;;;;10449048;28;20259;-69
2021/04/08 06:39:37;;;;;;;4.67;4.17;;;5.20;37.00;;;;;;10444356;28;20228;-69
2021/04/08 06:44:39;;;;;;;4.60;4.20;;;5.20;36.90;;;;;;10456685;28;20237;-69
2021/04/08 06:49:48;;;;;;;5.30;4.20;;;5.40;37.10;;;;;;10468231;28;20236;-69
2021/04/08 06:54:51;;;;;;;6.33;4.13;;;5.30;37.00;;;;;;10451124;28;20502;-69
2021/04/08 06:59:53;;;;;;;4.40;4.00;;;5.30;37.00;;;;;;10447705;28;20239;-69
2021/04/08 07:04:59;;;;;;;4.70;4.30;;;5.40;37.10;;;;;;10451277;28;20221;-69
2021/04/08 07:10:01;;;;;;;7.17;6.47;;;5.40;37.10;;;;;;10448440;28;20227;-69
2021/04/08 07:15:04;;;;;;;6.00;5.40;;;5.50;37.20;;;;;;10449110;28;20236;-69
2021/04/08 07:20:08;;;;;;;5.20;4.80;;;5.50;37.10;;;;;;10450384;28;20225;-69
2021/04/08 07:25:16;;;;;;;6.53;5.93;;;5.50;37.20;;;;;;10447023;28;20252;-69
2021/04/08 07:30:19;;;;;;;5.30;4.80;;;5.60;37.30;;;;;;10444675;28;20229;-68
2021/04/08 07:35:22;;;;;;;5.70;5.20;;;5.70;37.30;;;;;;10446745;28;20232;-68
2021/04/08 07:40:26;;;;;;;6.67;5.23;;;5.80;37.20;;;;;;10444206;28;20233;-68
2021/04/08 07:45:32;;;;;;;6.33;5.60;;;5.80;37.10;;;;;;10441637;28;20229;-68
2021/04/08 07:50:37;;;;;;;6.27;5.43;;;6.10;36.90;;;;;;10447104;28;20221;-68
2021/04/08 07:55:40;;;;;;;5.03;4.53;;;6.00;36.70;;;;;;10448139;28;20244;-68
2021/04/08 08:00:43;;;;;;;8.00;4.97;;;6.00;36.40;;;;;;10450247;28;20217;-68
2021/04/08 08:05:47;;;;;;;6.47;4.80;;;6.00;36.00;;;;;;10441691;28;20713;-69
2021/04/08 08:10:58;;;;;;;6.53;5.03;;;6.00;35.90;;;;;;10441909;28;20236;-70
2021/04/08 08:16:07;;;;;;;7.97;4.50;;;6.10;35.80;;;;;;10440653;28;20227;-71
2021/04/08 08:21:16;;;;;;;5.40;4.60;;;6.20;36.20;;;;;;10443747;28;20237;-69
2021/04/08 08:26:26;;;;;;;5.87;4.57;;;6.30;35.90;;;;;;10442507;28;20235;-68
2021/04/08 08:31:37;;;;;;;5.20;4.70;;;6.40;35.30;;;;;;10438862;28;20274;-68
2021/04/08 08:36:49;;;;;;;7.07;4.70;;;6.60;34.90;;;;;;10440986;28;20232;-68
2021/04/08 08:41:53;;;;;;;5.57;4.40;;;6.80;34.80;;;;;;10441842;28;20316;-69
2021/04/08 08:47:00;;;;;;;6.27;3.93;;;6.90;34.60;;;;;;10445077;28;20224;-69
2021/04/08 08:52:05;;;;;;;6.00;4.63;;;7.00;34.60;;;;;;10440286;28;20709;-70
2021/04/08 08:57:08;;;;;;;5.13;4.60;;;7.20;34.70;;;;;;10445637;28;20221;-70
2021/04/08 09:02:10;;;;;;;5.10;4.40;;;7.30;34.40;;;;;;10449899;28;20236;-70
2021/04/08 09:07:14;;;;;;;7.37;5.17;;;7.40;34.70;;;;;;10446999;28;20264;-69
2021/04/08 09:12:18;;;;;;;6.60;4.97;;;7.50;34.10;;;;;;10441327;28;20328;-69
2021/04/08 09:17:40;;;;;;;6.27;4.70;;;7.60;34.40;;;;;;10442601;28;20219;-69
2021/04/08 09:22:55;;;;;;;5.73;4.83;;;7.70;33.70;;;;;;10446304;28;20651;-69
2021/04/08 09:28:00;;;;;;;5.87;4.47;;;7.90;33.10;;;;;;10444112;28;20244;-69
2021/04/08 09:33:02;;;;;;;5.00;4.50;;;8.00;33.70;;;;;;10445397;28;20312;-70
2021/04/08 09:38:16;;;;;;;5.27;4.20;;;8.10;33.60;;;;;;10445261;28;20272;-69
2021/04/08 09:43:23;;;;;;;5.87;4.70;;;8.20;32.10;;;;;;10444123;28;20598;-69
2021/04/08 09:48:26;;;;;;;5.53;4.50;;;8.30;32.70;;;;;;10442414;28;20228;-69
2021/04/08 09:53:51;;;;;;;4.67;4.17;;;8.30;32.30;;;;;;10453011;28;20761;-69
2021/04/08 09:58:57;;;;;;;4.93;4.13;;;8.30;32.40;;;;;;10460189;28;20228;-69
2021/04/08 10:04:10;;;;;;;5.33;4.70;;;8.30;31.30;;;;;;10443582;28;20670;-69
2021/04/08 10:09:15;;;;;;;5.37;3.00;;;8.30;30.60;;;;;;10452159;28;20642;-69
2021/04/08 10:14:22;;;;;;;3.47;2.83;;;8.20;30.30;;;;;;10447077;28;20248;-69
2021/04/08 10:19:29;;;;;;;3.20;2.90;;;8.10;30.30;;;;;;10447296;28;20231;-69
2021/04/08 10:24:36;;;;;;;4.07;2.80;;;8.00;30.20;;;;;;10449753;28;20602;-69
2021/04/08 10:29:39;;;;;;;2.77;2.57;;;8.00;29.70;;;;;;10449926;28;20662;-69
2021/04/08 10:34:42;;;;;;;3.87;3.37;;;7.90;29.90;;;;;;10453321;28;20221;-69
2021/04/08 10:39:45;;;;;;;4.20;3.40;;;7.80;29.50;;;;;;10448823;28;20235;-69
2021/04/08 10:44:49;;;;;;;4.50;3.47;;;7.70;30.00;;;;;;10448390;28;20242;-69
2021/04/08 10:49:53;;;;;;;5.97;3.87;;;7.70;30.30;;;;;;10444183;28;20229;-69
2021/04/08 10:54:59;;;;;;;4.37;3.97;;;7.70;30.20;;;;;;10451592;28;20740;-69
2021/04/08 11:00:04;;;;;;;4.10;3.80;;;7.70;30.30;;;;;;10446126;28;20271;-69
2021/04/08 11:05:08;;;;;;;6.17;4.30;;;7.80;31.10;;;;;;10446074;28;20247;-70
2021/04/08 11:10:13;;;;;;;4.23;3.93;;;7.90;31.20;;;;;;10440817;28;20799;-69
2021/04/08 11:15:16;;;;;;;4.57;4.07;;;8.00;30.70;;;;;;10450415;28;20229;-69
2021/04/08 11:20:26;;;;;;;6.00;4.80;;;8.10;30.70;;;;;;10450643;28;20328;-70
2021/04/08 11:25:30;;;;;;;4.40;3.83;;;8.20;29.90;;;;;;10444226;28;20236;-71
2021/04/08 11:30:37;;;;;;;4.77;4.13;;;8.30;29.50;;;;;;10446615;28;20405;-71
2021/04/08 11:35:42;;;;;;;4.30;3.90;;;8.30;28.70;;;;;;10447055;28;20312;-71
2021/04/08 11:40:46;;;;;;;3.93;3.60;;;8.20;27.90;;;;;;10447645;28;20235;-70
2021/04/08 11:45:49;;;;;;;6.77;4.00;;;8.20;29.00;;;;;;10440780;28;20229;-70
2021/04/08 11:50:52;;;;;;;4.20;3.77;;;8.30;29.10;;;;;;10446937;28;20229;-71
2021/04/08 11:55:55;;;;;;;3.93;3.53;;;8.40;30.00;;;;;;10448946;28;20636;-71
2021/04/08 12:01:08;;;;;;;4.00;3.60;;;8.60;29.70;;;;;;10446972;28;20229;-71
2021/04/08 12:06:11;;;;;;;3.50;3.20;;;8.70;27.90;;;;;;10444969;28;20229;-71
2021/04/08 12:11:15;;;;;;;4.27;3.47;;;8.80;28.30;;;;;;10447166;28;20229;-71
2021/04/08 12:16:24;;;;;;;3.90;3.50;;;8.80;28.30;;;;;;10441251;28;20583;-71
2021/04/08 12:21:29;;;;;;;3.77;3.47;;;8.90;28.40;;;;;;10440352;28;20315;-71
2021/04/08 12:26:32;;;;;;;5.17;3.37;;;8.90;28.20;;;;;;10445868;28;20228;-70
2021/04/08 12:31:34;;;;;;;5.53;3.30;;;9.00;27.10;;;;;;10445724;28;20225;-70
2021/04/08 12:36:37;;;;;;;3.43;3.13;;;9.00;27.40;;;;;;10447468;28;20243;-71
2021/04/08 12:41:40;;;;;;;4.60;3.27;;;9.10;28.50;;;;;;10447175;28;20676;-71
2021/04/08 12:46:42;;;;;;;4.20;3.50;;;9.20;28.50;;;;;;10445559;28;20251;-70
2021/04/08 12:51:45;;;;;;;3.47;2.77;;;9.20;27.80;;;;;;10450271;28;20700;-70
2021/04/08 12:56:48;;;;;;;3.53;3.00;;;9.20;27.10;;;;;;10445819;28;20231;-71
2021/04/08 13:01:50;;;;;;;3.93;3.37;;;9.20;27.40;;;;;;10447218;28;20239;-71
2021/04/08 13:06:53;;;;;;;3.90;3.50;;;9.20;27.70;;;;;;10443755;28;20241;-71
2021/04/08 13:11:56;;;;;;;4.33;3.50;;;9.20;27.60;;;;;;10443788;28;20271;-70
2021/04/08 13:16:58;;;;;;;4.13;3.57;;;9.20;28.00;;;;;;10444920;28;20715;-71
2021/04/08 13:22:00;;;;;;;5.77;3.80;;;9.40;28.70;;;;;;10445500;28;20241;-70
2021/04/08 13:27:05;;;;;;;5.43;3.93;;;9.50;27.90;;;;;;10454497;28;20233;-70
2021/04/08 13:32:08;;;;;;;4.97;3.70;;;9.50;27.10;;;;;;10456278;28;20254;-70
2021/04/08 13:37:12;;;;;;;3.67;3.20;;;9.60;27.90;;;;;;10454576;28;20233;-70
2021/04/08 13:42:15;;;;;;;3.77;3.37;;;9.70;27.10;;;;;;10458153;28;20229;-72
2021/04/08 13:47:18;;;;;;;3.60;3.30;;;9.70;27.40;;;;;;10457557;28;20905;-71
2021/04/08 13:52:20;;;;;;;3.60;3.13;;;9.70;27.30;;;;;;10448845;28;20627;-71
2021/04/08 13:57:23;;;;;;;5.47;3.37;;;9.70;27.40;;;;;;10450291;28;20615;-71
2021/04/08 14:02:26;;;;;;;4.23;3.77;;;9.70;26.50;;;;;;10453872;28;20308;-71
2021/04/08 14:07:28;;;;;;;4.13;3.53;;;9.70;27.30;;;;;;10448875;28;20312;-71
2021/04/08 14:12:31;;;;;;;4.23;3.83;;;9.70;27.20;;;;;;10450845;28;20225;-71
2021/04/08 14:17:34;;;;;;;4.27;3.57;;;9.70;26.60;;;;;;10448705;28;20652;-71
2021/04/08 14:22:37;;;;;;;4.27;3.23;;;9.70;27.00;;;;;;10448473;28;20239;-71
2021/04/08 14:27:40;;;;;;;4.20;3.30;;;9.60;27.90;;;;;;10452240;28;20240;-71
2021/04/08 14:32:42;;;;;;;4.37;3.97;;;9.80;27.90;;;;;;10443598;28;20397;-71
2021/04/08 14:37:44;;;;;;;4.87;3.53;;;9.90;27.60;;;;;;10447475;28;20232;-71
2021/04/08 14:42:47;;;;;;;3.80;3.50;;;10.00;27.20;;;;;;10449098;28;20240;-71
2021/04/08 14:47:49;;;;;;;4.20;3.73;;;10.10;27.10;;;;;;10447320;28;20232;-71
2021/04/08 14:52:52;;;;;;;3.93;3.50;;;10.20;26.70;;;;;;10449643;28;20232;-71
2021/04/08 14:58:05;;;;;;;3.87;3.53;;;10.30;26.60;;;;;;10442085;28;20590;-71
2021/04/08 15:03:07;;;;;;;3.70;3.40;;;10.30;26.60;;;;;;10446644;28;20233;-70
2021/04/08 15:08:10;;;;;;;4.80;3.80;;;10.30;26.90;;;;;;10424730;28;643206;-70
2021/04/08 15:13:13;;;;;;;3.90;3.60;;;10.40;26.70;;;;;;10449781;28;20227;-71
2021/04/08 15:18:15;;;;;;;3.80;3.43;;;10.50;26.20;;;;;;10446113;28;20320;-71
2021/04/08 15:23:17;;;;;;;4.97;3.70;;;10.40;26.50;;;;;;10451631;28;20237;-71
2021/04/08 15:28:20;;;;;;;4.57;3.30;;;10.50;26.60;;;;;;10440099;28;20617;-71
2021/04/08 15:33:25;;;;;;;4.40;3.40;;;10.40;26.50;;;;;;10445626;28;20673;-71
2021/04/08 15:38:28;;;;;;;4.63;3.57;;;10.50;26.60;;;;;;10450423;28;20355;-71
2021/04/08 15:43:31;;;;;;;4.27;3.57;;;10.50;26.80;;;;;;10449737;28;20231;-71
2021/04/08 15:48:33;;;;;;;4.90;4.30;;;10.50;26.40;;;;;;10440375;28;20229;-71
2021/04/08 15:53:35;;;;;;;3.50;3.20;;;10.60;26.60;;;;;;10448087;28;20241;-71
2021/04/08 15:58:38;;;;;;;4.50;4.10;;;10.60;26.90;;;;;;10449438;28;20319;-71
2021/04/08 16:03:40;;;;;;;5.53;3.57;;;10.70;26.10;;;;;;10448882;28;20577;-71
2021/04/08 16:08:43;;;;;;;4.03;3.50;;;10.60;25.70;;;;;;10446394;28;20232;-71
2021/04/08 16:13:46;;;;;;;3.97;3.57;;;10.60;25.90;;;;;;10448332;28;20232;-71
2021/04/08 16:18:50;;;;;;;4.13;3.50;;;10.60;26.30;;;;;;10441421;28;20229;-71
2021/04/08 16:23:52;;;;;;;3.47;3.17;;;10.60;25.80;;;;;;10445846;28;20599;-71
2021/04/08 16:28:57;;;;;;;3.43;3.13;;;10.60;26.20;;;;;;10447330;28;20707;-71
2021/04/08 16:33:59;;;;;;;3.40;3.10;;;10.60;25.90;;;;;;10440085;28;20228;-72
2021/04/08 16:39:04;;;;;;;3.27;2.97;;;10.70;26.70;;;;;;10448439;28;20245;-72
2021/04/08 16:44:07;;;;;;;3.73;3.40;;;10.80;26.40;;;;;;10440830;28;20229;-73
2021/04/08 16:49:09;;;;;;;4.40;3.33;;;10.90;26.30;;;;;;10438229;28;20221;-73
2021/04/08 16:54:12;;;;;;;4.13;3.73;;;11.00;26.30;;;;;;10443782;28;20217;-73
2021/04/08 16:59:15;;;;;;;3.30;3.00;;;11.00;26.40;;;;;;10456250;28;20330;-73
2021/04/08 17:04:17;;;;;;;4.30;3.50;;;11.10;26.00;;;;;;10457001;28;20717;-73
2021/04/08 17:09:19;;;;;;;4.17;3.60;;;11.10;26.00;;;;;;10450247;28;20221;-73
2021/04/08 17:14:22;;;;;;;5.80;3.40;;;11.10;25.90;;;;;;10456664;28;20236;-73
2021/04/08 17:19:25;;;;;;;3.90;3.40;;;11.10;25.70;;;;;;10460310;28;20929;-73
2021/04/08 17:24:27;;;;;;;5.83;3.30;;;11.10;25.90;;;;;;10459639;28;20229;-73
2021/04/08 17:29:30;;;;;;;3.70;3.10;;;11.10;26.10;;;;;;10455290;28;20220;-73
2021/04/08 17:34:33;;;;;;;3.53;3.10;;;11.10;26.10;;;;;;10458630;28;20229;-73
2021/04/08 17:39:35;;;;;;;3.10;2.90;;;11.10;26.20;;;;;;10454939;28;20232;-73
2021/04/08 17:44:39;;;;;;;4.00;3.20;;;11.10;26.20;;;;;;10453027;28;20229;-73
2021/04/08 17:49:41;;;;;;;3.20;2.90;;;11.10;26.30;;;;;;10450211;28;20860;-73
2021/04/08 17:54:44;;;;;;;4.27;2.90;;;11.10;26.50;;;;;;10455092;28;20225;-73
2021/04/08 17:59:47;;;;;;;3.90;2.97;;;11.10;26.30;;;;;;10455815;28;20235;-73
2021/04/08 18:04:49;;;;;;;3.37;3.10;;;11.00;26.10;;;;;;10452422;28;20711;-73
2021/04/08 18:09:52;;;;;;;5.40;4.73;;;10.90;26.10;;;;;;10448385;28;20241;-73
2021/04/08 18:14:55;;;;;;;7.90;5.80;;;10.80;26.00;;;;;;10449119;28;20301;-73
2021/04/08 18:20:00;;;;;;;5.60;4.63;;;10.60;26.20;;;;;;10448788;28;20603;-73
2021/04/08 18:25:08;;;;;;;5.80;4.63;;;10.40;26.30;;;;;;10451621;28;20279;-73
2021/04/08 18:30:12;;;;;;;9.10;7.80;;;10.20;26.90;;;;;;10452492;28;20654;-73
2021/04/08 18:35:15;;;;;;;11.83;10.63;;;10.20;26.70;;;;;;10451108;28;20227;-73
2021/04/08 18:40:18;;;;;;;9.73;8.73;;;10.10;26.70;;;;;;10452149;28;20227;-73
2021/04/08 18:45:21;;;;;;;7.07;6.03;;;10.00;26.70;;;;;;10449191;28;20257;-73
2021/04/08 18:50:24;;;;;;;5.93;4.60;;;9.90;27.50;;;;;;10449545;28;20734;-73
2021/04/08 18:55:30;;;;;;;8.03;7.23;;;9.80;27.60;;;;;;10452112;28;20593;-73
2021/04/08 19:00:35;;;;;;;6.73;6.03;;;9.80;27.40;;;;;;10449655;28;20248;-74
2021/04/08 19:05:38;;;;;;;13.80;11.57;;;9.60;27.40;;;;;;10449073;28;20910;-74
2021/04/08 19:10:41;;;;;;;18.37;14.63;;;9.50;27.50;;;;;;10437548;28;20458;-74
2021/04/08 19:15:44;;;;;;;16.83;14.37;;;9.40;27.70;;;;;;10444643;28;20256;-74
2021/04/08 19:21:00;;;;;;;;;;;;;;;;;;;;;
2021/04/08 19:26:07;;;;;;;22.30;19.63;;;9.30;27.80;;;;;;10422532;28;20239;-73
2021/04/08 19:31:19;;;;;;;11.90;10.63;;;9.20;27.80;;;;;;10443371;28;20279;-74
2021/04/08 19:36:21;;;;;;;10.20;9.10;;;9.10;27.80;;;;;;10450126;28;20232;-74
2021/04/08 19:41:23;;;;;;;7.53;6.40;;;9.00;27.60;;;;;;10447691;28;20251;-75
2021/04/08 19:46:27;;;;;;;7.37;6.57;;;8.90;27.60;;;;;;10445058;28;20225;-74
2021/04/08 19:51:29;;;;;;;6.70;5.83;;;8.80;27.60;;;;;;10445913;28;20232;-74
2021/04/08 19:56:32;;;;;;;8.67;7.17;;;8.70;27.80;;;;;;10446851;28;20221;-75
2021/04/08 20:01:35;;;;;;;9.90;8.87;;;8.60;27.80;;;;;;10446127;28;20244;-74
2021/04/08 20:06:37;;;;;;;10.40;8.50;;;8.40;27.80;;;;;;10451763;28;20263;-74
2021/04/08 20:11:40;;;;;;;14.53;9.07;;;8.30;28.00;;;;;;10468729;28;20315;-74
2021/04/08 20:16:43;;;;;;;13.03;9.73;;;8.20;27.90;;;;;;10444606;28;20228;-74
2021/04/08 20:21:46;;;;;;;11.20;9.43;;;8.10;27.90;;;;;;10439031;28;20229;-75
2021/04/08 20:26:48;;;;;;;8.50;7.27;;;8.00;27.80;;;;;;10438423;28;20237;-75
2021/04/08 20:31:51;;;;;;;8.60;5.87;;;8.00;27.80;;;;;;10438574;28;20228;-75
2021/04/08 20:36:54;;;;;;;7.37;6.57;;;7.90;27.70;;;;;;10441136;28;20249;-75
2021/04/08 20:41:57;;;;;;;7.17;6.33;;;7.90;27.70;;;;;;10439178;28;20838;-75
2021/04/08 20:47:01;;;;;;;6.83;6.13;;;7.80;27.70;;;;;;10436665;28;20236;-75
2021/04/08 20:52:03;;;;;;;7.13;6.00;;;7.80;27.90;;;;;;10438991;28;20224;-76
2021/04/08 20:57:06;;;;;;;7.17;6.47;;;7.70;27.80;;;;;;10440565;28;20609;-75
2021/04/08 21:02:09;;;;;;;6.97;5.80;;;7.60;28.00;;;;;;10437977;28;20623;-75
2021/04/08 21:07:11;;;;;;;6.33;5.80;;;7.50;27.90;;;;;;10440405;28;20240;-75
2021/04/08 21:12:14;;;;;;;7.83;7.03;;;7.40;28.10;;;;;;10441418;28;20229;-75
2021/04/08 21:17:17;;;;;;;7.40;6.70;;;7.40;28.20;;;;;;10440567;28;20762;-76
2021/04/08 21:22:21;;;;;;;8.00;7.20;;;7.30;28.20;;;;;;10439279;28;20257;-75
2021/04/08 21:27:23;;;;;;;9.00;7.17;;;7.20;28.20;;;;;;10435232;28;20253;-75
2021/04/08 21:32:26;;;;;;;6.63;5.97;;;7.10;28.00;;;;;;10440895;28;20224;-75
2021/04/08 21:37:28;;;;;;;7.53;6.27;;;7.10;28.10;;;;;;10439474;28;20217;-75
2021/04/08 21:42:31;;;;;;;7.80;6.43;;;7.00;28.20;;;;;;10442358;28;21021;-75
2021/04/08 21:47:34;;;;;;;8.50;6.50;;;6.90;28.10;;;;;;10447758;28;20697;-75
2021/04/08 21:52:37;;;;;;;6.97;6.13;;;6.70;28.10;;;;;;10447180;28;20311;-75
2021/04/08 21:57:39;;;;;;;6.33;5.73;;;6.60;28.20;;;;;;10450391;28;20244;-75
2021/04/08 22:02:43;;;;;;;8.03;7.13;;;6.50;28.50;;;;;;10447097;28;20231;-75
2021/04/08 22:07:45;;;;;;;7.47;6.50;;;6.40;28.50;;;;;;10447226;28;20621;-75
2021/04/08 22:12:48;;;;;;;7.03;6.30;;;6.30;28.50;;;;;;10445616;28;20224;-75
2021/04/08 22:17:53;;;;;;;6.60;5.90;;;6.20;28.60;;;;;;10444178;28;20229;-75
2021/04/08 22:23:03;;;;;;;5.97;5.10;;;6.10;28.80;;;;;;10447589;28;20659;-75
2021/04/08 22:28:06;;;;;;;6.43;5.60;;;6.00;29.00;;;;;;10445126;28;20229;-75
2021/04/08 22:33:11;;;;;;;5.20;4.70;;;5.90;28.90;;;;;;10451258;28;20283;-75
2021/04/08 22:38:13;;;;;;;6.97;5.60;;;5.90;29.10;;;;;;10452604;28;21040;-75
2021/04/08 22:43:16;;;;;;;8.33;6.50;;;5.80;29.00;;;;;;10449306;28;20232;-75
2021/04/08 22:48:19;;;;;;;7.57;5.37;;;5.80;28.90;;;;;;10447673;28;20233;-75
2021/04/08 22:53:22;;;;;;;5.90;5.40;;;5.70;29.00;;;;;;10451956;28;20233;-75
2021/04/08 23:24:18;;;;;;;6.40;5.63;;;5.30;29.60;;;;;;10441528;28;20217;-75
2021/04/08 23:29:20;;;;;;;8.53;6.53;;;5.20;29.20;;;;;;10447595;28;20650;-75
2021/04/08 23:34:22;;;;;;;6.80;6.10;;;5.20;29.30;;;;;;10450308;28;20316;-75
2021/04/08 23:39:27;;;;;;;6.67;6.07;;;5.10;29.20;;;;;;10448084;28;20673;-74
2021/04/08 23:44:29;;;;;;;6.33;5.70;;;5.10;29.30;;;;;;10448791;28;20256;-75
2021/04/08 23:49:31;;;;;;;6.07;5.47;;;5.00;29.20;;;;;;10452346;28;20724;-74
2021/04/08 23:54:35;;;;;;;6.60;6.00;;;4.80;29.30;;;;;;10449527;28;20275;-75
2021/04/08 23:59:38;;;;;;;5.57;5.00;;;4.70;29.50;;;;;;10452906;28;20585;-74
